Time;durP1;ratioP1;P1;durP2;ratioP2;P2;SDS_P1;SDS_P2;PMS_P1;PMS_P2;Temp;Humidity;BMP_temperature;BMP_pressure;BME280_temperature;BME280_humidity;BME280_pressure;Samples;Min_cycle;Max_cycle;Signal;HPM_P1;HPM_P2
2023/12/22 00:00:30;;;;;;;3.60;1.37;;;12.00;74.40;;;;;;5003448;28;20480;-63
2023/12/22 00:02:55;;;;;;;1.63;1.13;;;12.00;74.30;;;;;;5001144;28;20186;-62
2023/12/22 00:05:21;;;;;;;2.00;1.00;;;11.90;73.50;;;;;;5000888;28;20245;-59
2023/12/22 00:07:46;;;;;;;3.67;1.40;;;11.80;73.60;;;;;;5002185;28;20205;-60
2023/12/22 00:10:12;;;;;;;3.20;1.37;;;11.70;73.40;;;;;;5001098;28;20269;-62
2023/12/22 00:12:40;;;;;;;3.37;1.37;;;11.70;73.80;;;;;;5003215;28;20185;-62
2023/12/22 00:15:06;;;;;;;2.73;1.40;;;11.70;72.30;;;;;;4998836;28;20183;-62
2023/12/22 00:17:32;;;;;;;2.53;1.20;;;11.90;71.60;;;;;;5002731;28;20432;-61
2023/12/22 00:19:59;;;;;;;3.20;1.23;;;11.70;69.80;;;;;;5000338;28;20214;-63
2023/12/22 00:22:25;;;;;;;2.70;1.00;;;11.60;70.60;;;;;;5002501;28;20200;-61
2023/12/22 00:24:51;;;;;;;2.80;1.10;;;11.70;70.30;;;;;;5000786;28;20424;-62
2023/12/22 00:27:16;;;;;;;3.53;1.20;;;11.60;70.00;;;;;;5001125;28;20182;-62
2023/12/22 00:29:42;;;;;;;3.30;1.17;;;11.50;70.70;;;;;;5002388;28;20189;-62
2023/12/22 00:32:09;;;;;;;4.97;1.13;;;11.50;70.40;;;;;;4999841;28;20182;-61
2023/12/22 00:34:35;;;;;;;2.37;1.50;;;11.30;71.60;;;;;;5002603;28;20205;-62
2023/12/22 00:37:00;;;;;;;5.87;1.50;;;11.40;72.50;;;;;;4999219;28;20438;-61
2023/12/22 00:39:26;;;;;;;5.80;1.70;;;11.30;74.40;;;;;;5002237;28;20595;-62
2023/12/22 00:41:52;;;;;;;3.10;1.30;;;11.30;77.20;;;;;;5001038;28;20184;-60
2023/12/22 00:44:17;;;;;;;1.30;1.00;;;11.20;78.60;;;;;;5001099;28;20579;-63
2023/12/22 00:46:43;;;;;;;2.13;1.17;;;11.00;78.00;;;;;;5000916;28;20298;-62
2023/12/22 00:49:08;;;;;;;3.90;1.40;;;11.00;78.70;;;;;;4999578;28;20556;-61
2023/12/22 00:51:34;;;;;;;2.10;1.10;;;11.20;78.90;;;;;;5005093;28;20236;-62
2023/12/22 00:53:59;;;;;;;1.63;0.67;;;11.50;74.60;;;;;;4999546;28;20241;-63
2023/12/22 00:56:25;;;;;;;1.07;0.63;;;11.40;71.30;;;;;;5000736;28;20208;-62
2023/12/22 00:58:50;;;;;;;2.00;0.77;;;11.50;70.80;;;;;;5000738;28;20186;-61
2023/12/22 01:01:16;;;;;;;1.03;0.80;;;11.60;69.20;;;;;;4999676;28;20214;-61
2023/12/22 01:03:41;;;;;;;0.70;0.70;;;11.70;68.10;;;;;;5001801;28;20791;-62
2023/12/22 01:06:07;;;;;;;0.77;0.70;;;11.70;67.60;;;;;;4998338;28;20712;-62
2023/12/22 01:08:33;;;;;;;1.20;0.93;;;11.80;67.30;;;;;;5001622;28;20564;-63
2023/12/22 01:10:58;;;;;;;1.63;0.90;;;11.90;66.40;;;;;;4999654;28;20204;-62
2023/12/22 01:13:24;;;;;;;4.23;1.10;;;11.90;66.10;;;;;;5001660;28;20178;-61
2023/12/22 01:15:49;;;;;;;3.27;1.00;;;12.00;66.10;;;;;;4999949;28;20210;-61
2023/12/22 01:18:15;;;;;;;1.53;1.27;;;11.90;66.30;;;;;;5005952;28;20273;-64
2023/12/22 01:20:41;;;;;;;2.30;1.00;;;11.80;66.80;;;;;;5001740;28;20267;-64
2023/12/22 01:23:06;;;;;;;1.97;0.90;;;11.90;66.90;;;;;;4998991;28;20606;-61
2023/12/22 01:25:32;;;;;;;1.30;0.90;;;12.00;66.90;;;;;;5000203;28;20197;-62
2023/12/22 01:27:57;;;;;;;0.90;0.70;;;12.00;66.60;;;;;;4999490;28;20206;-63
2023/12/22 01:30:23;;;;;;;1.90;1.10;;;12.10;66.60;;;;;;5001233;28;20334;-62
2023/12/22 01:32:48;;;;;;;2.10;1.03;;;12.20;66.40;;;;;;5000432;28;20256;-60
2023/12/22 01:35:14;;;;;;;2.50;1.00;;;12.00;66.50;;;;;;4998768;28;20229;-61
2023/12/22 01:37:40;;;;;;;1.57;1.07;;;11.50;68.00;;;;;;5001563;28;20324;-62
2023/12/22 01:40:06;;;;;;;3.00;1.20;;;11.60;68.80;;;;;;4998828;28;20705;-62
2023/12/22 01:42:31;;;;;;;1.97;1.40;;;11.70;68.80;;;;;;5001932;28;20185;-61
2023/12/22 01:44:57;;;;;;;1.97;0.80;;;11.90;68.40;;;;;;4997856;28;20925;-62
2023/12/22 01:47:23;;;;;;;3.53;1.00;;;12.00;68.10;;;;;;5000575;28;20175;-61
2023/12/22 01:49:48;;;;;;;2.80;1.70;;;12.10;68.10;;;;;;5000213;28;20185;-63
2023/12/22 01:52:16;;;;;;;3.67;1.40;;;12.10;68.30;;;;;;4999797;28;20512;-62
2023/12/22 01:54:42;;;;;;;2.03;1.63;;;12.00;68.70;;;;;;5000321;28;20181;-63
2023/12/22 01:57:08;;;;;;;1.10;1.00;;;11.70;70.30;;;;;;4997791;28;20442;-62
2023/12/22 01:59:34;;;;;;;8.33;1.93;;;11.40;71.60;;;;;;5001538;28;20472;-62
2023/12/22 02:02:03;;;;;;;4.30;1.40;;;11.10;72.30;;;;;;4998339;28;20418;-63
2023/12/22 02:04:30;;;;;;;4.50;1.43;;;10.90;72.40;;;;;;5000410;28;20591;-60
2023/12/22 02:07:00;;;;;;;3.33;1.17;;;10.90;71.70;;;;;;4998295;28;20491;-62
2023/12/22 02:09:26;;;;;;;3.93;1.30;;;10.80;71.30;;;;;;5001297;28;20508;-62
2023/12/22 02:11:51;;;;;;;6.30;2.00;;;10.80;70.10;;;;;;4999243;28;20905;-62
2023/12/22 02:14:17;;;;;;;3.97;1.03;;;10.70;68.40;;;;;;4999503;28;20341;-61
2023/12/22 02:16:47;;;;;;;3.63;1.87;;;10.60;68.00;;;;;;4999946;28;20209;-59
2023/12/22 02:19:37;;;;;;;1.80;1.00;;;10.50;67.40;;;;;;5001324;28;20689;-59
2023/12/22 02:22:04;;;;;;;5.03;1.77;;;10.50;67.70;;;;;;5001813;28;20524;-60
2023/12/22 02:24:32;;;;;;;0.80;0.80;;;10.50;66.80;;;;;;4997187;28;20880;-62
2023/12/22 02:27:13;;;;;;;3.30;1.00;;;10.50;67.20;;;;;;4997728;28;20963;-62
2023/12/22 02:29:49;;;;;;;2.10;0.80;;;10.70;67.20;;;;;;4997859;28;20421;-62
2023/12/22 02:32:31;;;;;;;1.20;0.80;;;10.60;66.90;;;;;;4998925;28;20425;-60
2023/12/22 02:34:57;;;;;;;1.77;1.10;;;10.90;66.70;;;;;;4997287;28;20421;-61
2023/12/22 02:37:24;;;;;;;2.80;0.90;;;10.80;65.90;;;;;;4999965;28;20434;-59
2023/12/22 02:39:52;;;;;;;1.60;0.80;;;10.50;65.70;;;;;;4999123;28;20472;-61
2023/12/22 02:42:19;;;;;;;2.90;1.10;;;10.60;66.60;;;;;;4999471;28;20948;-63
2023/12/22 02:44:45;;;;;;;1.80;0.80;;;10.70;66.70;;;;;;4998805;28;20480;-60
2023/12/22 02:47:11;;;;;;;2.43;1.00;;;10.80;66.10;;;;;;4997997;28;20441;-61
2023/12/22 02:49:36;;;;;;;3.13;1.20;;;10.60;65.90;;;;;;5001073;28;21208;-60
2023/12/22 02:52:02;;;;;;;2.60;1.07;;;10.60;66.40;;;;;;4997512;28;20716;-61
2023/12/22 02:54:29;;;;;;;3.07;0.90;;;10.50;66.00;;;;;;4999773;28;20727;-62
2023/12/22 02:56:55;;;;;;;1.17;0.90;;;10.40;66.20;;;;;;4998205;28;20210;-61
2023/12/22 02:59:20;;;;;;;2.80;1.20;;;10.50;66.20;;;;;;4999244;28;21178;-61
2023/12/22 03:01:46;;;;;;;3.20;1.03;;;10.50;66.40;;;;;;4998727;28;20185;-59
2023/12/22 03:04:12;;;;;;;3.10;1.50;;;10.70;66.40;;;;;;4997948;28;20331;-61
2023/12/22 03:06:37;;;;;;;6.93;1.23;;;10.80;66.10;;;;;;4999529;28;20223;-62
2023/12/22 03:09:03;;;;;;;4.00;1.43;;;10.90;66.20;;;;;;4997378;28;20186;-62
2023/12/22 03:11:29;;;;;;;3.07;1.20;;;10.90;65.50;;;;;;4998966;28;20733;-61
2023/12/22 03:13:54;;;;;;;3.60;1.17;;;10.90;66.30;;;;;;4998433;28;20520;-62
2023/12/22 03:16:20;;;;;;;3.40;1.10;;;10.90;66.20;;;;;;4997950;28;20206;-62
2023/12/22 03:18:45;;;;;;;2.30;1.30;;;10.60;65.90;;;;;;5003436;28;20216;-60
2023/12/22 03:21:21;;;;;;;3.67;1.30;;;10.60;66.50;;;;;;4997569;28;20249;-59
2023/12/22 03:23:46;;;;;;;2.03;1.00;;;10.60;67.00;;;;;;4999123;28;20533;-62
2023/12/22 03:26:12;;;;;;;4.50;1.50;;;10.50;65.90;;;;;;4996840;28;20488;-59
2023/12/22 03:28:38;;;;;;;2.13;1.10;;;10.40;65.60;;;;;;5000437;28;20243;-62
2023/12/22 03:31:03;;;;;;;2.40;1.27;;;10.60;65.50;;;;;;4997190;28;20249;-59
2023/12/22 03:33:29;;;;;;;1.40;1.10;;;10.70;64.30;;;;;;5003209;28;20188;-61
2023/12/22 03:35:55;;;;;;;6.53;1.20;;;10.60;63.00;;;;;;5000749;28;20225;-60
2023/12/22 03:38:20;;;;;;;7.00;1.23;;;10.50;63.80;;;;;;5002338;28;20270;-61
2023/12/22 03:40:46;;;;;;;2.23;1.10;;;10.60;63.50;;;;;;5003407;28;20218;-59
2023/12/22 03:43:11;;;;;;;1.83;1.30;;;10.70;63.10;;;;;;5001324;28;20183;-61
2023/12/22 03:45:37;;;;;;;5.27;1.47;;;10.90;63.00;;;;;;5003065;28;20209;-60
2023/12/22 03:48:03;;;;;;;4.13;1.23;;;10.80;62.30;;;;;;5000693;28;20175;-62
2023/12/22 03:50:29;;;;;;;4.63;3.07;;;10.80;62.80;;;;;;5003639;28;20918;-61
2023/12/22 03:52:54;;;;;;;4.53;1.20;;;10.70;62.80;;;;;;5001597;28;20417;-59
2023/12/22 03:55:20;;;;;;;3.47;1.00;;;10.80;62.90;;;;;;4999451;28;20209;-60
2023/12/22 03:57:45;;;;;;;3.17;0.90;;;10.70;63.20;;;;;;5001567;28;20178;-60
2023/12/22 04:00:13;;;;;;;6.50;1.50;;;10.50;63.30;;;;;;5000892;28;20246;-62
2023/12/22 04:02:39;;;;;;;4.33;1.17;;;10.60;63.50;;;;;;5003757;28;20213;-61
2023/12/22 04:05:05;;;;;;;1.80;1.20;;;10.50;64.10;;;;;;4999305;28;20445;-63
2023/12/22 04:07:30;;;;;;;4.10;1.90;;;10.60;63.90;;;;;;5003585;28;20440;-62
2023/12/22 04:09:56;;;;;;;3.60;1.20;;;10.80;64.20;;;;;;5001216;28;20193;-59
2023/12/22 04:12:21;;;;;;;2.80;1.10;;;10.40;66.90;;;;;;5002209;28;20210;-59
2023/12/22 04:14:47;;;;;;;2.73;1.47;;;10.20;71.20;;;;;;5001298;28;20186;-62
2023/12/22 04:17:12;;;;;;;2.40;1.27;;;9.80;75.00;;;;;;5004861;28;20209;-60
2023/12/22 04:19:38;;;;;;;4.13;1.17;;;9.80;77.80;;;;;;5003376;28;20209;-59
2023/12/22 04:22:04;;;;;;;1.43;1.17;;;9.70;79.80;;;;;;5000170;28;20190;-60
2023/12/22 04:24:29;;;;;;;2.80;1.07;;;9.90;80.30;;;;;;4998878;28;20277;-61
2023/12/22 04:26:55;;;;;;;3.40;1.17;;;10.20;78.20;;;;;;5001060;28;20202;-60
2023/12/22 04:29:20;;;;;;;2.43;1.10;;;10.40;77.40;;;;;;5001945;28;20179;-60
2023/12/22 04:31:46;;;;;;;4.13;1.30;;;10.40;78.00;;;;;;5002168;28;20261;-61
2023/12/22 04:34:15;;;;;;;5.13;1.33;;;10.40;78.00;;;;;;5000639;28;20178;-59
2023/12/22 04:36:41;;;;;;;8.50;1.70;;;10.30;77.60;;;;;;5001697;28;20202;-62
2023/12/22 04:39:07;;;;;;;3.03;1.40;;;10.10;76.70;;;;;;4999821;28;20422;-61
2023/12/22 04:41:32;;;;;;;6.20;1.70;;;9.70;77.70;;;;;;5003642;28;20178;-61
2023/12/22 04:43:58;;;;;;;5.40;1.33;;;9.80;79.80;;;;;;5000168;28;20190;-61
2023/12/22 04:46:23;;;;;;;6.87;1.87;;;9.70;78.90;;;;;;5000780;28;20689;-61
2023/12/22 04:48:49;;;;;;;7.60;1.93;;;9.60;76.90;;;;;;5001394;28;20194;-61
2023/12/22 04:51:14;;;;;;;3.63;1.20;;;9.50;75.60;;;;;;5000739;28;20175;-61
2023/12/22 04:53:40;;;;;;;1.87;1.00;;;9.60;76.40;;;;;;5002427;28;20263;-62
2023/12/22 04:56:05;;;;;;;6.13;1.30;;;9.70;75.10;;;;;;4998446;28;20198;-61
2023/12/22 04:58:31;;;;;;;3.13;1.30;;;9.80;74.40;;;;;;5002720;28;20186;-61
2023/12/22 05:00:57;;;;;;;6.03;1.43;;;10.00;72.80;;;;;;5000116;28;20791;-59
2023/12/22 05:03:22;;;;;;;4.00;2.37;;;10.00;71.40;;;;;;5001366;28;20230;-60
2023/12/22 05:05:48;;;;;;;3.10;1.73;;;9.90;71.70;;;;;;5000082;28;20574;-62
2023/12/22 05:08:14;;;;;;;5.67;1.87;;;9.90;71.90;;;;;;5000416;28;20186;-60
2023/12/22 05:10:40;;;;;;;6.53;1.47;;;10.20;70.90;;;;;;5002146;28;20196;-63
2023/12/22 05:13:06;;;;;;;3.13;1.20;;;10.20;70.20;;;;;;4999135;28;20430;-62
2023/12/22 05:15:31;;;;;;;6.53;1.60;;;10.30;70.20;;;;;;5001300;28;20288;-59
2023/12/22 05:17:57;;;;;;;4.83;1.23;;;10.20;70.00;;;;;;5003987;28;20665;-60
2023/12/22 05:20:22;;;;;;;5.80;1.60;;;10.40;69.90;;;;;;5001226;28;20705;-61
2023/12/22 05:22:48;;;;;;;4.40;1.07;;;10.20;69.00;;;;;;5000679;28;20661;-63
2023/12/22 05:25:13;;;;;;;5.47;1.70;;;10.00;69.70;;;;;;5008717;28;20198;-61
2023/12/22 05:27:41;;;;;;;2.70;1.53;;;10.20;70.20;;;;;;5001761;28;20210;-60
2023/12/22 05:30:07;;;;;;;2.30;0.90;;;10.00;70.00;;;;;;4998952;28;20183;-63
2023/12/22 05:32:33;;;;;;;4.33;1.47;;;10.10;70.20;;;;;;5001749;28;20417;-61
2023/12/22 05:34:58;;;;;;;3.30;1.70;;;10.10;70.30;;;;;;4998701;28;20792;-59
2023/12/22 05:37:24;;;;;;;4.00;1.90;;;10.00;70.40;;;;;;5001135;28;20179;-61
2023/12/22 05:39:49;;;;;;;3.40;1.30;;;9.80;71.10;;;;;;4998081;28;20226;-62
2023/12/22 05:42:15;;;;;;;6.90;2.90;;;10.00;70.20;;;;;;5000032;28;20217;-61
2023/12/22 05:44:40;;;;;;;12.67;3.10;;;10.20;70.60;;;;;;5001142;28;20551;-59
2023/12/22 05:47:07;;;;;;;3.77;1.67;;;10.10;69.90;;;;;;4998573;28;20253;-62
2023/12/22 05:49:32;;;;;;;6.50;1.73;;;10.20;70.80;;;;;;4997906;28;20224;-60
2023/12/22 05:51:58;;;;;;;5.07;1.77;;;10.30;70.70;;;;;;4999084;28;20449;-61
2023/12/22 05:54:25;;;;;;;3.13;1.50;;;10.20;70.80;;;;;;4999420;28;20202;-63
2023/12/22 05:56:51;;;;;;;6.90;2.10;;;10.30;70.40;;;;;;4999695;28;20206;-61
2023/12/22 05:59:17;;;;;;;10.43;2.60;;;10.30;70.20;;;;;;4999651;28;20847;-61
2023/12/22 06:01:43;;;;;;;7.90;2.23;;;10.20;69.80;;;;;;5001103;28;20433;-60
2023/12/22 06:04:08;;;;;;;7.20;1.60;;;10.30;69.60;;;;;;4997937;28;20819;-59
2023/12/22 06:06:36;;;;;;;8.37;1.83;;;10.40;69.30;;;;;;5001172;28;20217;-60
2023/12/22 06:09:01;;;;;;;5.27;1.80;;;10.30;67.60;;;;;;4998412;28;20186;-59
2023/12/22 06:11:27;;;;;;;7.53;2.37;;;10.30;67.40;;;;;;5000912;28;20482;-61
2023/12/22 06:13:52;;;;;;;5.77;1.63;;;10.30;66.70;;;;;;4998919;28;20229;-58
2023/12/22 06:16:18;;;;;;;5.83;1.83;;;10.30;66.70;;;;;;4998990;28;20384;-62
2023/12/22 06:18:44;;;;;;;10.20;2.17;;;10.30;66.10;;;;;;5000885;28;20194;-60
2023/12/22 06:21:10;;;;;;;8.33;2.10;;;10.10;65.50;;;;;;4998494;28;20234;-59
2023/12/22 06:23:36;;;;;;;7.70;1.97;;;10.30;66.20;;;;;;5001011;28;20185;-61
2023/12/22 06:26:07;;;;;;;4.63;1.43;;;10.20;65.40;;;;;;4997442;28;20442;-61
2023/12/22 06:28:33;;;;;;;8.53;1.93;;;10.40;66.00;;;;;;4997323;28;20553;-61
2023/12/22 06:30:58;;;;;;;6.60;1.97;;;10.30;65.50;;;;;;4998642;28;20438;-61
2023/12/22 06:33:24;;;;;;;9.80;2.30;;;10.40;67.10;;;;;;4999744;28;20197;-61
2023/12/22 06:35:53;;;;;;;5.80;2.30;;;10.50;69.10;;;;;;4999045;28;20202;-59
2023/12/22 06:38:19;;;;;;;61.60;34.73;;;10.60;68.70;;;;;;4999531;28;20280;-63
2023/12/22 06:40:46;;;;;;;4.70;1.87;;;10.60;68.30;;;;;;5000895;28;21015;-62
2023/12/22 06:43:12;;;;;;;4.33;1.47;;;10.90;67.40;;;;;;4998042;28;20422;-60
2023/12/22 06:45:39;;;;;;;5.37;2.17;;;10.70;65.50;;;;;;5000448;28;20467;-58
2023/12/22 06:48:06;;;;;;;7.53;2.33;;;10.40;65.80;;;;;;5001453;28;20274;-62
2023/12/22 06:50:31;;;;;;;5.70;1.70;;;10.30;66.00;;;;;;5000948;28;20859;-61
2023/12/22 06:52:57;;;;;;;6.50;1.77;;;10.60;66.20;;;;;;4998051;28;20536;-62
2023/12/22 06:55:23;;;;;;;9.13;2.10;;;10.50;65.40;;;;;;4999056;28;20799;-61
2023/12/22 06:57:49;;;;;;;6.37;1.97;;;10.50;65.40;;;;;;5003132;28;20269;-62
2023/12/22 07:00:15;;;;;;;3.43;1.53;;;10.60;65.70;;;;;;4998712;28;20222;-60
2023/12/22 07:02:41;;;;;;;5.50;1.90;;;10.60;64.60;;;;;;5000075;28;20932;-61
2023/12/22 07:05:09;;;;;;;10.60;2.27;;;10.60;64.40;;;;;;4996727;28;20548;-62
2023/12/22 07:07:36;;;;;;;6.10;1.50;;;10.70;64.60;;;;;;4999344;28;20177;-61
2023/12/22 07:10:01;;;;;;;4.63;2.00;;;10.70;64.30;;;;;;5001962;28;20422;-60
2023/12/22 07:12:27;;;;;;;4.73;1.87;;;10.60;64.70;;;;;;5003749;28;20420;-59
2023/12/22 07:14:53;;;;;;;3.43;1.70;;;10.80;64.90;;;;;;5002099;28;20646;-60
2023/12/22 07:17:19;;;;;;;3.97;1.60;;;10.80;64.50;;;;;;5003163;28;20933;-61
2023/12/22 07:19:45;;;;;;;4.33;1.30;;;10.80;64.60;;;;;;5003932;28;20487;-61
2023/12/22 07:22:10;;;;;;;7.40;2.10;;;10.80;64.70;;;;;;5001458;28;20195;-58
2023/12/22 07:24:36;;;;;;;3.73;1.40;;;10.80;65.20;;;;;;5004114;28;20317;-60
2023/12/22 07:27:02;;;;;;;7.50;2.90;;;10.80;65.10;;;;;;5001287;28;20194;-62
2023/12/22 07:29:27;;;;;;;7.60;1.90;;;10.70;65.50;;;;;;5003951;28;20276;-61
2023/12/22 07:31:53;;;;;;;6.23;1.37;;;10.80;65.60;;;;;;5002039;28;20186;-62
2023/12/22 07:34:18;;;;;;;5.10;2.07;;;10.90;66.50;;;;;;5002586;28;20187;-64
2023/12/22 07:36:44;;;;;;;8.03;2.03;;;10.70;65.60;;;;;;5003124;28;20202;-61
2023/12/22 07:39:10;;;;;;;11.40;2.13;;;10.70;66.40;;;;;;5001292;28;20613;-62
2023/12/22 07:41:36;;;;;;;4.40;2.17;;;10.90;66.90;;;;;;5004895;28;20641;-60
2023/12/22 07:44:02;;;;;;;5.77;1.53;;;11.00;66.50;;;;;;5000808;28;20418;-62
2023/12/22 07:46:28;;;;;;;5.20;1.80;;;11.00;66.20;;;;;;5005592;28;20210;-60
2023/12/22 07:48:54;;;;;;;5.00;1.67;;;11.00;66.10;;;;;;5002259;28;20190;-60
2023/12/22 07:51:20;;;;;;;5.07;1.47;;;10.90;66.70;;;;;;5002509;28;20464;-60
2023/12/22 07:53:46;;;;;;;3.77;1.60;;;11.00;66.60;;;;;;5002941;28;20456;-60
2023/12/22 07:56:11;;;;;;;4.87;1.90;;;10.90;66.20;;;;;;5000578;28;20473;-61
2023/12/22 07:58:37;;;;;;;9.77;2.13;;;11.00;66.60;;;;;;5004467;28;20186;-59
2023/12/22 08:01:04;;;;;;;7.97;2.87;;;10.60;66.10;;;;;;5000644;28;20733;-61
2023/12/22 08:03:29;;;;;;;2.60;1.50;;;10.60;66.90;;;;;;5003219;28;20436;-60
2023/12/22 08:05:55;;;;;;;4.00;1.57;;;10.90;67.10;;;;;;5001017;28;20444;-61
2023/12/22 08:08:21;;;;;;;4.70;1.57;;;11.10;66.70;;;;;;5002678;28;20190;-61
2023/12/22 08:10:46;;;;;;;5.17;1.77;;;11.00;66.70;;;;;;5003416;28;20421;-62
2023/12/22 08:13:12;;;;;;;6.53;1.80;;;11.20;67.40;;;;;;5001059;28;20236;-62
2023/12/22 08:15:38;;;;;;;2.50;1.40;;;10.80;68.30;;;;;;5003195;28;20284;-61
2023/12/22 08:18:03;;;;;;;5.97;1.73;;;10.80;71.10;;;;;;5000062;28;20190;-61
2023/12/22 08:20:29;;;;;;;5.83;1.90;;;10.80;72.30;;;;;;5003311;28;20243;-62
2023/12/22 08:22:55;;;;;;;4.07;1.60;;;10.70;74.00;;;;;;5001165;28;20437;-62
2023/12/22 08:25:20;;;;;;;6.13;1.67;;;10.70;75.00;;;;;;5001179;28;20232;-62
2023/12/22 08:27:46;;;;;;;5.27;1.67;;;10.90;75.90;;;;;;5002778;28;20217;-61
2023/12/22 08:30:12;;;;;;;6.90;2.40;;;10.90;76.70;;;;;;5000914;28;20186;-61
2023/12/22 08:32:38;;;;;;;8.43;2.03;;;11.10;75.70;;;;;;5003413;28;20768;-62
2023/12/22 08:35:04;;;;;;;4.70;1.73;;;11.00;75.90;;;;;;4999345;28;20429;-62
2023/12/22 08:37:30;;;;;;;5.80;1.83;;;10.90;76.60;;;;;;5002739;28;20433;-62
2023/12/22 08:39:56;;;;;;;4.93;1.70;;;11.10;77.10;;;;;;5000896;28;20842;-62
2023/12/22 08:42:22;;;;;;;3.70;1.67;;;11.20;77.10;;;;;;5002114;28;20936;-60
2023/12/22 08:44:48;;;;;;;7.03;1.57;;;11.10;76.30;;;;;;5001318;28;20417;-63
2023/12/22 08:47:13;;;;;;;6.27;2.00;;;11.00;77.70;;;;;;5000956;28;20206;-63
2023/12/22 08:49:39;;;;;;;4.47;1.70;;;10.90;79.30;;;;;;5003038;28;20516;-63
2023/12/22 08:52:05;;;;;;;9.80;2.33;;;10.90;79.00;;;;;;4999448;28;20193;-63
2023/12/22 08:54:30;;;;;;;6.30;2.10;;;11.00;79.30;;;;;;5002112;28;20276;-62
2023/12/22 08:56:56;;;;;;;5.20;2.10;;;10.90;79.30;;;;;;5000677;28;20225;-61
2023/12/22 08:59:22;;;;;;;11.60;4.50;;;11.00;79.00;;;;;;5001645;28;20186;-63
2023/12/22 09:01:48;;;;;;;12.07;2.33;;;11.00;78.30;;;;;;5001459;28;20272;-63
2023/12/22 09:04:13;;;;;;;9.10;3.47;;;10.90;78.40;;;;;;5000502;28;20253;-62
2023/12/22 09:06:39;;;;;;;10.63;2.90;;;10.90;78.50;;;;;;5002202;28;20252;-64
2023/12/22 09:09:06;;;;;;;8.83;2.73;;;10.70;77.90;;;;;;4999529;28;20607;-63
2023/12/22 09:11:31;;;;;;;12.63;4.70;;;10.80;78.70;;;;;;5003075;28;20190;-63
2023/12/22 09:13:57;;;;;;;7.83;2.10;;;11.00;77.40;;;;;;4999975;28;20471;-62
2023/12/22 09:16:27;;;;;;;11.00;3.00;;;11.00;75.20;;;;;;5000963;28;20301;-63
2023/12/22 09:18:53;;;;;;;11.13;3.10;;;10.80;75.60;;;;;;5000858;28;20421;-61
2023/12/22 09:21:19;;;;;;;9.00;2.50;;;10.90;74.80;;;;;;5000961;28;20552;-61
2023/12/22 09:23:46;;;;;;;11.23;2.60;;;10.70;75.30;;;;;;5001485;28;21085;-62
2023/12/22 09:26:15;;;;;;;8.00;2.63;;;10.40;73.50;;;;;;4999278;28;20532;-63
2023/12/22 09:28:42;;;;;;;9.40;2.30;;;10.20;73.30;;;;;;5002336;28;20870;-63
2023/12/22 09:31:09;;;;;;;6.63;2.57;;;10.40;74.90;;;;;;4998473;28;20903;-63
2023/12/22 09:33:34;;;;;;;16.33;3.30;;;10.60;73.90;;;;;;5002440;28;20421;-61
2023/12/22 09:36:00;;;;;;;13.07;2.63;;;10.60;72.50;;;;;;4999412;28;20846;-61
2023/12/22 09:38:25;;;;;;;13.07;3.40;;;10.40;71.50;;;;;;5001782;28;20187;-63
2023/12/22 09:40:51;;;;;;;7.23;3.10;;;10.50;72.00;;;;;;5001354;28;20221;-60
2023/12/22 09:43:19;;;;;;;13.30;2.97;;;10.30;71.50;;;;;;5000247;28;20420;-60
2023/12/22 09:45:49;;;;;;;9.87;2.77;;;10.50;72.90;;;;;;5001110;28;20198;-60
2023/12/22 09:48:17;;;;;;;12.17;3.37;;;10.50;70.50;;;;;;5000160;28;20788;-61
2023/12/22 09:50:44;;;;;;;10.97;2.70;;;10.60;70.70;;;;;;5001874;28;20994;-62
2023/12/22 09:53:12;;;;;;;10.13;3.37;;;10.60;69.70;;;;;;4998708;28;20426;-62
2023/12/22 09:55:39;;;;;;;14.70;3.37;;;10.60;69.00;;;;;;5001469;28;20871;-62
2023/12/22 09:58:08;;;;;;;10.93;2.90;;;10.70;68.70;;;;;;4999589;28;20426;-60
2023/12/22 10:00:35;;;;;;;9.53;2.77;;;10.50;68.30;;;;;;4997037;28;20538;-62
2023/12/22 10:03:02;;;;;;;6.03;2.53;;;10.60;68.80;;;;;;4997866;28;20480;-62
2023/12/22 10:05:27;;;;;;;14.73;2.83;;;10.40;67.10;;;;;;5000539;28;20501;-59
2023/12/22 10:07:54;;;;;;;16.93;2.83;;;10.40;67.90;;;;;;4999824;28;21010;-59
2023/12/22 10:10:20;;;;;;;16.37;3.17;;;10.60;67.90;;;;;;5000353;28;20592;-61
2023/12/22 10:12:47;;;;;;;8.93;2.20;;;10.80;67.70;;;;;;5000538;28;20455;-58
2023/12/22 10:15:14;;;;;;;8.23;2.50;;;10.80;66.70;;;;;;4998533;28;20442;-62
2023/12/22 10:17:40;;;;;;;8.90;2.90;;;10.90;66.30;;;;;;5001611;28;20417;-62
2023/12/22 10:20:08;;;;;;;6.73;2.40;;;10.90;66.10;;;;;;4998482;28;20973;-60
2023/12/22 10:22:34;;;;;;;12.77;2.70;;;10.80;65.90;;;;;;4999715;28;21161;-61
2023/12/22 10:24:59;;;;;;;8.47;2.40;;;10.90;65.90;;;;;;4998249;28;21203;-60
2023/12/22 10:27:25;;;;;;;13.77;2.60;;;11.00;65.80;;;;;;5000624;28;20442;-62
2023/12/22 10:29:55;;;;;;;6.93;2.80;;;11.00;64.40;;;;;;5000070;28;20178;-60
2023/12/22 10:32:21;;;;;;;8.70;2.90;;;10.90;63.60;;;;;;4999552;28;20179;-60
2023/12/22 10:34:47;;;;;;;11.90;2.77;;;10.90;63.70;;;;;;4999854;28;20448;-59
2023/12/22 10:37:13;;;;;;;6.43;2.03;;;11.20;64.00;;;;;;4998927;28;20450;-61
2023/12/22 10:39:38;;;;;;;6.97;2.50;;;11.10;63.70;;;;;;5001360;28;20539;-62
2023/12/22 10:42:05;;;;;;;10.60;2.80;;;11.20;63.50;;;;;;4998388;28;20186;-62
2023/12/22 10:44:30;;;;;;;7.20;2.70;;;11.40;63.10;;;;;;5000474;28;20441;-62
2023/12/22 10:46:57;;;;;;;11.00;2.87;;;11.30;62.90;;;;;;4998995;28;20456;-62
2023/12/22 10:49:24;;;;;;;13.30;3.27;;;11.20;64.10;;;;;;4999968;28;20185;-62
2023/12/22 10:51:50;;;;;;;7.53;2.20;;;11.10;64.00;;;;;;4999339;28;20436;-62
2023/12/22 10:54:16;;;;;;;8.07;3.30;;;11.00;65.40;;;;;;4999184;28;20422;-62
2023/12/22 10:56:42;;;;;;;8.13;2.57;;;11.00;65.00;;;;;;5000032;28;20483;-59
2023/12/22 10:59:09;;;;;;;6.00;2.30;;;11.20;65.70;;;;;;4997982;28;21056;-62
2023/12/22 11:01:38;;;;;;;6.93;2.20;;;11.30;65.10;;;;;;4999564;28;20681;-61
2023/12/22 11:04:07;;;;;;;9.00;2.70;;;11.40;65.70;;;;;;4997766;28;20437;-59
2023/12/22 11:06:36;;;;;;;4.67;1.90;;;11.40;65.90;;;;;;4996258;28;20449;-62
2023/12/22 11:09:10;;;;;;;10.87;2.30;;;11.40;66.20;;;;;;4998074;28;20418;-62
2023/12/22 11:11:38;;;;;;;3.50;1.60;;;11.40;66.30;;;;;;4997184;28;20439;-60
2023/12/22 11:14:04;;;;;;;3.97;1.93;;;11.60;66.80;;;;;;4997842;28;20453;-62
2023/12/22 11:16:34;;;;;;;9.07;1.90;;;11.50;67.60;;;;;;5000154;28;20445;-61
2023/12/22 11:19:01;;;;;;;6.50;1.80;;;11.60;68.30;;;;;;4998447;28;20426;-62
2023/12/22 11:21:31;;;;;;;4.47;2.20;;;11.40;68.10;;;;;;5000467;28;20473;-62
2023/12/22 11:23:57;;;;;;;6.40;1.70;;;11.40;68.90;;;;;;4998675;28;20417;-61
2023/12/22 11:26:24;;;;;;;3.73;2.57;;;11.40;68.80;;;;;;4999980;28;20460;-62
2023/12/22 11:28:51;;;;;;;3.60;1.27;;;11.30;69.20;;;;;;5006620;28;20432;-60
2023/12/22 11:31:17;;;;;;;9.03;1.80;;;11.30;69.60;;;;;;4999331;28;20485;-60
2023/12/22 11:33:50;;;;;;;2.93;1.30;;;11.40;70.60;;;;;;5000671;28;20551;-62
2023/12/22 11:36:17;;;;;;;2.97;1.40;;;11.70;70.50;;;;;;4997751;28;20466;-59
2023/12/22 11:38:46;;;;;;;2.07;1.10;;;11.80;69.90;;;;;;5000684;28;20428;-61
2023/12/22 11:41:24;;;;;;;3.10;1.20;;;11.60;70.20;;;;;;4998772;28;20458;-60
2023/12/22 11:43:51;;;;;;;3.40;1.40;;;11.40;71.10;;;;;;4999249;28;21001;-62
2023/12/22 11:46:20;;;;;;;1.50;1.40;;;11.40;71.70;;;;;;4997913;28;20453;-59
2023/12/22 11:48:49;;;;;;;5.67;1.20;;;11.60;71.10;;;;;;5000192;28;20455;-60
2023/12/22 11:51:16;;;;;;;1.30;1.00;;;11.70;70.30;;;;;;4998698;28;20429;-63
2023/12/22 11:53:42;;;;;;;1.53;1.10;;;11.50;70.30;;;;;;5002424;28;20436;-61
2023/12/22 11:56:09;;;;;;;5.60;1.30;;;11.40;70.50;;;;;;5000051;28;20581;-61
2023/12/22 11:58:39;;;;;;;4.03;1.50;;;11.50;71.00;;;;;;5004811;28;20792;-60
2023/12/22 12:01:09;;;;;;;4.60;1.67;;;11.50;71.20;;;;;;5002702;28;20512;-60
2023/12/22 12:03:40;;;;;;;4.23;1.20;;;11.50;71.50;;;;;;5002115;28;20968;-60
2023/12/22 12:06:24;;;;;;;1.33;1.20;;;11.30;72.90;;;;;;5003385;28;20477;-59
2023/12/22 12:08:51;;;;;;;1.83;1.10;;;11.40;73.00;;;;;;5000923;28;20850;-63
2023/12/22 12:11:18;;;;;;;3.30;1.10;;;11.30;73.50;;;;;;5002510;28;20509;-62
2023/12/22 12:13:45;;;;;;;5.20;1.70;;;11.50;73.70;;;;;;5003955;28;20937;-61
2023/12/22 12:16:15;;;;;;;3.33;1.27;;;11.40;72.90;;;;;;5000070;28;20528;-60
2023/12/22 12:18:41;;;;;;;3.00;1.77;;;11.50;73.20;;;;;;5004118;28;20432;-63
2023/12/22 12:21:11;;;;;;;3.70;1.70;;;11.40;72.30;;;;;;5000758;28;21087;-60
2023/12/22 12:23:37;;;;;;;4.63;1.67;;;11.40;73.30;;;;;;5000386;28;20487;-60
2023/12/22 12:26:03;;;;;;;1.53;1.20;;;11.40;73.10;;;;;;4999678;28;20426;-59
2023/12/22 12:28:30;;;;;;;2.17;1.10;;;11.40;72.80;;;;;;5005177;28;20471;-59
2023/12/22 12:31:00;;;;;;;1.93;0.97;;;11.60;73.00;;;;;;5001821;28;20433;-63
2023/12/22 12:33:26;;;;;;;3.03;1.00;;;11.80;71.90;;;;;;5002857;28;20445;-60
2023/12/22 12:36:00;;;;;;;2.60;0.97;;;11.90;71.20;;;;;;5000921;28;20502;-62
2023/12/22 12:38:47;;;;;;;2.80;1.10;;;11.70;70.30;;;;;;5002891;28;20425;-62
2023/12/22 12:41:15;;;;;;;1.87;1.40;;;11.80;71.10;;;;;;5004242;28;20506;-60